sensor_id;sensor_type;location;lat;lon;timestamp;pressure;altitude;pressure_sealevel;temperature;humidity
21182;BME280;10749;46.296;7.524;2022-11-23T00:01:41;93732.66;;;6.25;49.86
21182;BME280;10749;46.296;7.524;2022-11-23T00:04:09;93726.06;;;6.29;49.53
21182;BME280;10749;46.296;7.524;2022-11-23T00:06:36;93720.34;;;6.26;49.78
21182;BME280;10749;46.296;7.524;2022-11-23T00:09:02;93720.53;;;6.24;49.91
21182;BME280;10749;46.296;7.524;2022-11-23T00:11:27;93719.50;;;6.25;49.73
21182;BME280;10749;46.296;7.524;2022-11-23T00:13:53;93713.34;;;6.18;50.01
21182;BME280;10749;46.296;7.524;2022-11-23T00:16:27;93721.53;;;6.09;50.06
21182;BME280;10749;46.296;7.524;2022-11-23T00:18:54;93716.31;;;6.00;50.23
21182;BME280;10749;46.296;7.524;2022-11-23T00:21:20;93727.31;;;6.04;49.99
21182;BME280;10749;46.296;7.524;2022-11-23T00:23:46;93726.41;;;6.12;50.04
21182;BME280;10749;46.296;7.524;2022-11-23T00:26:12;93722.22;;;6.17;49.88
21182;BME280;10749;46.296;7.524;2022-11-23T00:28:38;93718.69;;;6.10;49.55
21182;BME280;10749;46.296;7.524;2022-11-23T00:31:09;93720.06;;;6.06;49.60
21182;BME280;10749;46.296;7.524;2022-11-23T00:33:35;93715.16;;;6.03;49.84
21182;BME280;10749;46.296;7.524;2022-11-23T00:36:03;93717.44;;;6.06;50.10
21182;BME280;10749;46.296;7.524;2022-11-23T00:38:29;93717.63;;;6.05;49.96
21182;BME280;10749;46.296;7.524;2022-11-23T00:40:59;93718.41;;;6.05;49.97
21182;BME280;10749;46.296;7.524;2022-11-23T00:43:26;93717.78;;;6.03;50.26
21182;BME280;10749;46.296;7.524;2022-11-23T00:46:34;93724.41;;;5.99;50.09
21182;BME280;10749;46.296;7.524;2022-11-23T00:48:54;93726.81;;;6.00;50.38
21182;BME280;10749;46.296;7.524;2022-11-23T00:51:21;93732.09;;;6.00;50.07
21182;BME280;10749;46.296;7.524;2022-11-23T00:53:49;93727.38;;;5.96;50.41
21182;BME280;10749;46.296;7.524;2022-11-23T00:56:14;93724.28;;;5.92;50.36
21182;BME280;10749;46.296;7.524;2022-11-23T00:58:41;93725.09;;;5.93;50.44
21182;BME280;10749;46.296;7.524;2022-11-23T01:01:11;93738.59;;;5.90;50.39
21182;BME280;10749;46.296;7.524;2022-11-23T01:03:42;93736.34;;;5.87;50.66
21182;BME280;10749;46.296;7.524;2022-11-23T01:06:11;93735.97;;;5.90;50.15
21182;BME280;10749;46.296;7.524;2022-11-23T01:08:37;93739.63;;;5.81;50.19
21182;BME280;10749;46.296;7.524;2022-11-23T01:11:05;93742.97;;;5.75;50.54
21182;BME280;10749;46.296;7.524;2022-11-23T01:13:30;93744.47;;;5.69;50.12
21182;BME280;10749;46.296;7.524;2022-11-23T01:15:56;93745.00;;;5.65;49.95
21182;BME280;10749;46.296;7.524;2022-11-23T01:18:22;93737.84;;;5.58;50.06
21182;BME280;10749;46.296;7.524;2022-11-23T01:20:48;93735.84;;;5.61;50.34
21182;BME280;10749;46.296;7.524;2022-11-23T01:23:13;93739.13;;;5.63;50.31
21182;BME280;10749;46.296;7.524;2022-11-23T01:25:39;93749.28;;;5.66;50.67
21182;BME280;10749;46.296;7.524;2022-11-23T01:28:04;93751.06;;;5.65;50.15
21182;BME280;10749;46.296;7.524;2022-11-23T01:30:29;93741.47;;;5.57;50.22
21182;BME280;10749;46.296;7.524;2022-11-23T01:32:55;93743.78;;;5.52;50.06
21182;BME280;10749;46.296;7.524;2022-11-23T01:35:20;93738.59;;;5.44;49.96
21182;BME280;10749;46.296;7.524;2022-11-23T01:37:45;93739.59;;;5.43;49.63
21182;BME280;10749;46.296;7.524;2022-11-23T01:40:11;93746.13;;;5.47;50.05
21182;BME280;10749;46.296;7.524;2022-11-23T01:42:48;93752.56;;;5.45;50.14
21182;BME280;10749;46.296;7.524;2022-11-23T01:48:07;93759.59;;;5.44;49.70
21182;BME280;10749;46.296;7.524;2022-11-23T01:50:33;93762.22;;;5.44;50.19
21182;BME280;10749;46.296;7.524;2022-11-23T01:52:58;93758.16;;;5.42;50.17
21182;BME280;10749;46.296;7.524;2022-11-23T01:55:25;93753.22;;;5.39;50.16
21182;BME280;10749;46.296;7.524;2022-11-23T01:57:51;93762.44;;;5.35;50.14
21182;BME280;10749;46.296;7.524;2022-11-23T02:00:17;93758.72;;;5.29;50.50
21182;BME280;10749;46.296;7.524;2022-11-23T02:02:50;93755.19;;;5.14;50.60
21182;BME280;10749;46.296;7.524;2022-11-23T02:05:18;93748.28;;;5.21;50.34
21182;BME280;10749;46.296;7.524;2022-11-23T02:07:47;93745.19;;;5.18;50.39
21182;BME280;10749;46.296;7.524;2022-11-23T02:10:14;93761.25;;;5.15;50.44
21182;BME280;10749;46.296;7.524;2022-11-23T02:12:40;93741.44;;;5.12;50.69
21182;BME280;10749;46.296;7.524;2022-11-23T02:15:05;93741.91;;;5.16;50.61
21182;BME280;10749;46.296;7.524;2022-11-23T02:17:32;93738.31;;;5.17;50.66
21182;BME280;10749;46.296;7.524;2022-11-23T02:22:49;93749.91;;;5.22;50.85
21182;BME280;10749;46.296;7.524;2022-11-23T02:28:01;93739.91;;;5.26;50.88
21182;BME280;10749;46.296;7.524;2022-11-23T02:30:28;93744.94;;;5.27;50.97
21182;BME280;10749;46.296;7.524;2022-11-23T02:32:55;93757.09;;;5.28;51.19
21182;BME280;10749;46.296;7.524;2022-11-23T02:35:20;93751.13;;;5.34;51.18
21182;BME280;10749;46.296;7.524;2022-11-23T02:37:45;93747.53;;;5.35;51.03
21182;BME280;10749;46.296;7.524;2022-11-23T02:40:22;93750.19;;;5.27;51.06
21182;BME280;10749;46.296;7.524;2022-11-23T02:42:49;93758.44;;;5.24;51.13
21182;BME280;10749;46.296;7.524;2022-11-23T02:45:21;93752.06;;;5.19;50.17
21182;BME280;10749;46.296;7.524;2022-11-23T02:47:48;93755.91;;;5.08;50.34
21182;BME280;10749;46.296;7.524;2022-11-23T02:50:14;93763.31;;;5.04;50.37
21182;BME280;10749;46.296;7.524;2022-11-23T02:52:39;93763.97;;;4.98;50.75
21182;BME280;10749;46.296;7.524;2022-11-23T02:55:05;93764.50;;;4.94;50.83
21182;BME280;10749;46.296;7.524;2022-11-23T02:57:30;93768.09;;;4.93;50.68
21182;BME280;10749;46.296;7.524;2022-11-23T02:59:56;93767.63;;;4.89;51.12
21182;BME280;10749;46.296;7.524;2022-11-23T03:02:21;93759.59;;;4.91;50.60
21182;BME280;10749;46.296;7.524;2022-11-23T03:04:46;93756.34;;;4.81;50.91
21182;BME280;10749;46.296;7.524;2022-11-23T03:07:11;93756.53;;;4.79;50.99
21182;BME280;10749;46.296;7.524;2022-11-23T03:09:37;93759.31;;;4.78;51.29
21182;BME280;10749;46.296;7.524;2022-11-23T03:12:02;93748.03;;;4.77;50.90
21182;BME280;10749;46.296;7.524;2022-11-23T03:14:27;93757.69;;;4.77;50.96
21182;BME280;10749;46.296;7.524;2022-11-23T03:16:53;93751.94;;;4.81;50.81
21182;BME280;10749;46.296;7.524;2022-11-23T03:19:18;93749.00;;;4.84;50.82
21182;BME280;10749;46.296;7.524;2022-11-23T03:21:43;93747.47;;;4.90;50.80
21182;BME280;10749;46.296;7.524;2022-11-23T03:24:09;93741.13;;;4.84;50.74
21182;BME280;10749;46.296;7.524;2022-11-23T03:26:34;93742.63;;;4.79;51.13
21182;BME280;10749;46.296;7.524;2022-11-23T03:28:59;93728.56;;;4.72;51.21
21182;BME280;10749;46.296;7.524;2022-11-23T03:31:25;93732.47;;;4.76;51.21
21182;BME280;10749;46.296;7.524;2022-11-23T03:33:50;93742.16;;;4.75;51.33
21182;BME280;10749;46.296;7.524;2022-11-23T03:36:16;93729.72;;;4.69;51.18
21182;BME280;10749;46.296;7.524;2022-11-23T03:38:41;93733.81;;;4.72;50.95
21182;BME280;10749;46.296;7.524;2022-11-23T03:41:06;93730.69;;;4.68;51.31
21182;BME280;10749;46.296;7.524;2022-11-23T03:43:31;93736.59;;;4.70;51.22
21182;BME280;10749;46.296;7.524;2022-11-23T03:45:57;93739.88;;;4.64;51.39
21182;BME280;10749;46.296;7.524;2022-11-23T03:48:22;93724.03;;;4.57;51.39
21182;BME280;10749;46.296;7.524;2022-11-23T03:50:47;93728.31;;;4.58;51.10
21182;BME280;10749;46.296;7.524;2022-11-23T03:53:13;93701.84;;;4.37;51.36
21182;BME280;10749;46.296;7.524;2022-11-23T03:55:38;93723.72;;;4.52;51.18
21182;BME280;10749;46.296;7.524;2022-11-23T03:58:03;93729.31;;;4.49;51.23
21182;BME280;10749;46.296;7.524;2022-11-23T04:00:29;93725.72;;;4.50;51.28
21182;BME280;10749;46.296;7.524;2022-11-23T04:02:55;93710.00;;;4.50;51.68
21182;BME280;10749;46.296;7.524;2022-11-23T04:05:20;93720.78;;;4.47;51.72
21182;BME280;10749;46.296;7.524;2022-11-23T04:07:46;93722.09;;;4.51;51.75
21182;BME280;10749;46.296;7.524;2022-11-23T04:10:14;93722.78;;;4.45;51.75
21182;BME280;10749;46.296;7.524;2022-11-23T04:12:39;93721.44;;;4.49;51.86
21182;BME280;10749;46.296;7.524;2022-11-23T04:15:05;93717.53;;;4.45;51.72
21182;BME280;10749;46.296;7.524;2022-11-23T04:17:31;93713.28;;;4.44;51.94
21182;BME280;10749;46.296;7.524;2022-11-23T04:19:56;93709.34;;;4.48;51.88
21182;BME280;10749;46.296;7.524;2022-11-23T04:22:21;93701.47;;;4.48;52.10
21182;BME280;10749;46.296;7.524;2022-11-23T04:24:46;93702.16;;;4.42;51.99
21182;BME280;10749;46.296;7.524;2022-11-23T04:27:12;93688.75;;;4.37;51.91
21182;BME280;10749;46.296;7.524;2022-11-23T04:29:37;93687.28;;;4.43;51.72
21182;BME280;10749;46.296;7.524;2022-11-23T04:32:02;93688.59;;;4.39;52.02
21182;BME280;10749;46.296;7.524;2022-11-23T04:34:28;93681.88;;;4.36;51.98
21182;BME280;10749;46.296;7.524;2022-11-23T04:36:53;93680.25;;;4.35;51.88
21182;BME280;10749;46.296;7.524;2022-11-23T04:39:18;93685.66;;;4.34;51.89
21182;BME280;10749;46.296;7.524;2022-11-23T04:41:43;93684.53;;;4.28;51.96
21182;BME280;10749;46.296;7.524;2022-11-23T04:44:09;93679.66;;;4.25;51.69
21182;BME280;10749;46.296;7.524;2022-11-23T04:46:34;93681.94;;;4.20;51.96
21182;BME280;10749;46.296;7.524;2022-11-23T04:49:00;93676.72;;;4.20;52.03
21182;BME280;10749;46.296;7.524;2022-11-23T04:51:25;93675.72;;;4.21;51.94
21182;BME280;10749;46.296;7.524;2022-11-23T04:53:50;93665.41;;;4.19;52.07
21182;BME280;10749;46.296;7.524;2022-11-23T04:56:16;93678.34;;;4.21;52.08
21182;BME280;10749;46.296;7.524;2022-11-23T04:58:41;93684.22;;;4.23;51.41
21182;BME280;10749;46.296;7.524;2022-11-23T05:01:07;93681.47;;;4.16;51.80
21182;BME280;10749;46.296;7.524;2022-11-23T05:03:32;93688.50;;;4.16;51.74
21182;BME280;10749;46.296;7.524;2022-11-23T05:06:02;93687.38;;;4.10;52.03
21182;BME280;10749;46.296;7.524;2022-11-23T05:08:28;93693.63;;;4.09;51.85
21182;BME280;10749;46.296;7.524;2022-11-23T05:10:54;93694.59;;;4.08;51.88
21182;BME280;10749;46.296;7.524;2022-11-23T05:13:20;93702.59;;;4.07;52.15
21182;BME280;10749;46.296;7.524;2022-11-23T05:15:45;93700.47;;;4.02;52.08
21182;BME280;10749;46.296;7.524;2022-11-23T05:18:11;93708.34;;;4.02;51.87
21182;BME280;10749;46.296;7.524;2022-11-23T05:20:36;93716.06;;;3.96;52.11
21182;BME280;10749;46.296;7.524;2022-11-23T05:23:02;93715.56;;;3.92;52.26
21182;BME280;10749;46.296;7.524;2022-11-23T05:25:28;93723.25;;;3.94;52.08
21182;BME280;10749;46.296;7.524;2022-11-23T05:27:53;93721.94;;;3.90;52.05
21182;BME280;10749;46.296;7.524;2022-11-23T05:30:18;93724.75;;;3.88;52.20
21182;BME280;10749;46.296;7.524;2022-11-23T05:32:44;93736.19;;;3.87;51.87
21182;BME280;10749;46.296;7.524;2022-11-23T05:35:10;93741.44;;;3.87;52.03
21182;BME280;10749;46.296;7.524;2022-11-23T05:37:36;93747.81;;;3.85;51.98
21182;BME280;10749;46.296;7.524;2022-11-23T05:40:02;93740.44;;;3.88;52.15
21182;BME280;10749;46.296;7.524;2022-11-23T05:42:27;93746.31;;;3.90;52.08
21182;BME280;10749;46.296;7.524;2022-11-23T05:44:52;93752.72;;;3.96;52.12
21182;BME280;10749;46.296;7.524;2022-11-23T05:47:18;93753.34;;;3.98;52.18
21182;BME280;10749;46.296;7.524;2022-11-23T05:49:44;93754.66;;;3.94;52.30
21182;BME280;10749;46.296;7.524;2022-11-23T05:52:09;93747.13;;;3.99;52.01
21182;BME280;10749;46.296;7.524;2022-11-23T05:54:34;93752.38;;;3.99;52.22
21182;BME280;10749;46.296;7.524;2022-11-23T05:57:00;93753.69;;;3.95;52.30
21182;BME280;10749;46.296;7.524;2022-11-23T05:59:25;93756.63;;;3.92;52.23
21182;BME280;10749;46.296;7.524;2022-11-23T06:01:50;93754.50;;;3.87;52.22
21182;BME280;10749;46.296;7.524;2022-11-23T06:04:16;93762.22;;;3.89;52.52
21182;BME280;10749;46.296;7.524;2022-11-23T06:06:41;93765.47;;;3.91;52.51
21182;BME280;10749;46.296;7.524;2022-11-23T06:09:07;93763.81;;;3.90;52.52
21182;BME280;10749;46.296;7.524;2022-11-23T06:11:32;93766.13;;;3.93;52.65
21182;BME280;10749;46.296;7.524;2022-11-23T06:13:59;93770.06;;;3.97;52.53
21182;BME280;10749;46.296;7.524;2022-11-23T06:16:24;93767.41;;;4.05;52.34
21182;BME280;10749;46.296;7.524;2022-11-23T06:18:49;93774.59;;;4.11;52.13
21182;BME280;10749;46.296;7.524;2022-11-23T06:21:15;93781.31;;;4.13;52.27
21182;BME280;10749;46.296;7.524;2022-11-23T06:23:40;93779.84;;;4.03;52.28
21182;BME280;10749;46.296;7.524;2022-11-23T06:26:05;93779.69;;;3.96;52.44
21182;BME280;10749;46.296;7.524;2022-11-23T06:28:31;93787.72;;;3.95;52.35
21182;BME280;10749;46.296;7.524;2022-11-23T06:31:01;93781.16;;;3.91;52.30
21182;BME280;10749;46.296;7.524;2022-11-23T06:33:26;93772.84;;;3.87;52.31
21182;BME280;10749;46.296;7.524;2022-11-23T06:35:59;93774.00;;;3.93;52.51
21182;BME280;10749;46.296;7.524;2022-11-23T06:38:25;93765.81;;;3.88;52.40
21182;BME280;10749;46.296;7.524;2022-11-23T06:40:51;93761.22;;;3.82;52.35
21182;BME280;10749;46.296;7.524;2022-11-23T06:43:16;93762.22;;;3.81;52.50
21182;BME280;10749;46.296;7.524;2022-11-23T06:45:41;93769.25;;;3.80;52.56
21182;BME280;10749;46.296;7.524;2022-11-23T06:48:07;93762.38;;;3.79;52.61
21182;BME280;10749;46.296;7.524;2022-11-23T06:50:32;93763.84;;;3.73;52.64
21182;BME280;10749;46.296;7.524;2022-11-23T06:52:58;93769.06;;;3.73;52.54
21182;BME280;10749;46.296;7.524;2022-11-23T06:55:24;93777.59;;;3.76;52.39
21182;BME280;10749;46.296;7.524;2022-11-23T06:57:50;93785.25;;;3.77;52.42
21182;BME280;10749;46.296;7.524;2022-11-23T07:00:16;93787.38;;;3.82;52.37
21182;BME280;10749;46.296;7.524;2022-11-23T07:02:41;93795.91;;;3.84;52.02
21182;BME280;10749;46.296;7.524;2022-11-23T07:05:07;93795.09;;;3.83;52.39
21182;BME280;10749;46.296;7.524;2022-11-23T07:07:33;93805.69;;;3.90;52.56
21182;BME280;10749;46.296;7.524;2022-11-23T07:09:58;93815.53;;;3.96;52.76
21182;BME280;10749;46.296;7.524;2022-11-23T07:12:24;93812.91;;;4.04;52.28
21182;BME280;10749;46.296;7.524;2022-11-23T07:14:49;93817.47;;;4.02;52.59
21182;BME280;10749;46.296;7.524;2022-11-23T07:17:14;93823.88;;;4.07;52.29
21182;BME280;10749;46.296;7.524;2022-11-23T07:19:40;93812.25;;;4.02;52.19
21182;BME280;10749;46.296;7.524;2022-11-23T07:22:05;93825.66;;;3.99;52.42
21182;BME280;10749;46.296;7.524;2022-11-23T07:24:30;93826.50;;;3.99;52.13
21182;BME280;10749;46.296;7.524;2022-11-23T07:26:56;93823.72;;;4.01;52.20
21182;BME280;10749;46.296;7.524;2022-11-23T07:29:21;93818.78;;;3.98;52.58
21182;BME280;10749;46.296;7.524;2022-11-23T07:31:46;93827.31;;;4.00;52.57
21182;BME280;10749;46.296;7.524;2022-11-23T07:34:12;93821.75;;;4.03;52.66
21182;BME280;10749;46.296;7.524;2022-11-23T07:36:37;93837.28;;;4.04;52.64
21182;BME280;10749;46.296;7.524;2022-11-23T07:39:03;93830.91;;;4.07;52.62
21182;BME280;10749;46.296;7.524;2022-11-23T07:41:28;93830.41;;;4.11;52.65
21182;BME280;10749;46.296;7.524;2022-11-23T07:43:53;93836.47;;;4.12;52.36
21182;BME280;10749;46.296;7.524;2022-11-23T07:46:19;93838.44;;;4.18;52.37
21182;BME280;10749;46.296;7.524;2022-11-23T07:48:44;93831.69;;;4.24;52.65
21182;BME280;10749;46.296;7.524;2022-11-23T07:51:09;93842.50;;;4.29;52.73
21182;BME280;10749;46.296;7.524;2022-11-23T07:53:35;93849.69;;;4.27;52.77
21182;BME280;10749;46.296;7.524;2022-11-23T07:56:00;93848.22;;;4.32;52.68
21182;BME280;10749;46.296;7.524;2022-11-23T07:58:26;93851.00;;;4.31;52.70
21182;BME280;10749;46.296;7.524;2022-11-23T08:00:52;93853.47;;;4.32;52.11
21182;BME280;10749;46.296;7.524;2022-11-23T08:03:17;93850.22;;;4.22;51.73
21182;BME280;10749;46.296;7.524;2022-11-23T08:05:43;93850.53;;;4.11;52.29
21182;BME280;10749;46.296;7.524;2022-11-23T08:08:08;93847.09;;;4.10;52.55
21182;BME280;10749;46.296;7.524;2022-11-23T08:10:33;93852.84;;;4.14;53.00
21182;BME280;10749;46.296;7.524;2022-11-23T08:13:04;93853.63;;;4.23;52.83
21182;BME280;10749;46.296;7.524;2022-11-23T08:15:29;93847.91;;;4.27;52.66
21182;BME280;10749;46.296;7.524;2022-11-23T08:17:56;93848.72;;;4.28;52.79
21182;BME280;10749;46.296;7.524;2022-11-23T08:20:22;93852.34;;;4.35;52.93
21182;BME280;10749;46.296;7.524;2022-11-23T08:22:47;93847.72;;;4.45;52.98
21182;BME280;10749;46.296;7.524;2022-11-23T08:25:13;93855.41;;;4.46;53.02
21182;BME280;10749;46.296;7.524;2022-11-23T08:27:38;93858.50;;;4.58;52.98
21182;BME280;10749;46.296;7.524;2022-11-23T08:30:04;93862.25;;;4.72;53.06
21182;BME280;10749;46.296;7.524;2022-11-23T08:32:30;93868.75;;;4.84;53.17
21182;BME280;10749;46.296;7.524;2022-11-23T08:34:55;93865.28;;;4.91;53.18
21182;BME280;10749;46.296;7.524;2022-11-23T08:37:20;93869.06;;;4.97;52.95
21182;BME280;10749;46.296;7.524;2022-11-23T08:39:45;93871.09;;;5.09;52.86
21182;BME280;10749;46.296;7.524;2022-11-23T08:42:11;93873.88;;;5.16;52.71
21182;BME280;10749;46.296;7.524;2022-11-23T08:44:36;93875.56;;;5.09;52.89
21182;BME280;10749;46.296;7.524;2022-11-23T08:47:01;93876.19;;;5.11;52.95
21182;BME280;10749;46.296;7.524;2022-11-23T08:49:27;93877.78;;;5.20;52.89
21182;BME280;10749;46.296;7.524;2022-11-23T08:51:52;93875.28;;;5.27;52.82
21182;BME280;10749;46.296;7.524;2022-11-23T08:54:18;93874.97;;;5.30;52.76
21182;BME280;10749;46.296;7.524;2022-11-23T08:56:44;93877.06;;;5.34;53.00
21182;BME280;10749;46.296;7.524;2022-11-23T08:59:09;93874.06;;;5.45;52.89
21182;BME280;10749;46.296;7.524;2022-11-23T09:01:34;93869.09;;;5.58;52.84
21182;BME280;10749;46.296;7.524;2022-11-23T09:03:59;93873.78;;;5.71;53.03
21182;BME280;10749;46.296;7.524;2022-11-23T09:06:26;93866.94;;;5.85;53.07
21182;BME280;10749;46.296;7.524;2022-11-23T09:08:54;93866.22;;;5.99;52.88
21182;BME280;10749;46.296;7.524;2022-11-23T09:11:19;93854.66;;;6.08;52.98
21182;BME280;10749;46.296;7.524;2022-11-23T09:13:44;93866.72;;;6.17;52.85
21182;BME280;10749;46.296;7.524;2022-11-23T09:16:09;93860.59;;;6.25;52.77
21182;BME280;10749;46.296;7.524;2022-11-23T09:18:35;93853.81;;;6.30;53.02
21182;BME280;10749;46.296;7.524;2022-11-23T09:21:03;93852.28;;;6.36;52.77
21182;BME280;10749;46.296;7.524;2022-11-23T09:23:29;93856.13;;;6.25;52.48
21182;BME280;10749;46.296;7.524;2022-11-23T09:25:59;93862.03;;;6.13;52.29
21182;BME280;10749;46.296;7.524;2022-11-23T09:28:25;93860.84;;;6.15;52.64
21182;BME280;10749;46.296;7.524;2022-11-23T09:30:53;93860.13;;;6.21;52.43
21182;BME280;10749;46.296;7.524;2022-11-23T09:33:19;93855.44;;;6.31;52.73
21182;BME280;10749;46.296;7.524;2022-11-23T09:35:44;93859.41;;;6.50;52.47
21182;BME280;10749;46.296;7.524;2022-11-23T09:38:10;93861.03;;;6.66;52.55
21182;BME280;10749;46.296;7.524;2022-11-23T09:40:37;93860.44;;;6.78;52.35
21182;BME280;10749;46.296;7.524;2022-11-23T09:43:27;93857.72;;;6.86;52.50
21182;BME280;10749;46.296;7.524;2022-11-23T09:46:03;93857.53;;;7.03;52.44
21182;BME280;10749;46.296;7.524;2022-11-23T09:48:41;93865.59;;;7.16;52.27
21182;BME280;10749;46.296;7.524;2022-11-23T09:51:14;93858.31;;;7.32;52.28
21182;BME280;10749;46.296;7.524;2022-11-23T09:53:57;93861.47;;;7.42;52.13
21182;BME280;10749;46.296;7.524;2022-11-23T09:56:31;93867.06;;;7.54;52.26
21182;BME280;10749;46.296;7.524;2022-11-23T09:59:01;93862.53;;;7.63;51.99
21182;BME280;10749;46.296;7.524;2022-11-23T10:01:27;93864.81;;;7.51;51.88
21182;BME280;10749;46.296;7.524;2022-11-23T10:03:54;93862.94;;;7.30;51.78
21182;BME280;10749;46.296;7.524;2022-11-23T10:06:21;93865.69;;;7.22;51.63
21182;BME280;10749;46.296;7.524;2022-11-23T10:09:04;93865.22;;;7.19;51.49
21182;BME280;10749;46.296;7.524;2022-11-23T10:17:10;93859.22;;;7.25;51.26
21182;BME280;10749;46.296;7.524;2022-11-23T10:22:55;93845.13;;;7.47;51.25
21182;BME280;10749;46.296;7.524;2022-11-23T10:25:23;93847.38;;;7.65;51.41
21182;BME280;10749;46.296;7.524;2022-11-23T10:27:51;93847.25;;;7.73;51.26
21182;BME280;10749;46.296;7.524;2022-11-23T10:30:19;93834.78;;;7.81;51.36
21182;BME280;10749;46.296;7.524;2022-11-23T10:35:16;93840.09;;;8.09;51.28
21182;BME280;10749;46.296;7.524;2022-11-23T10:37:42;93835.22;;;8.27;51.44
21182;BME280;10749;46.296;7.524;2022-11-23T10:40:17;93834.75;;;8.45;51.17
21182;BME280;10749;46.296;7.524;2022-11-23T10:42:50;93829.81;;;8.57;51.17
21182;BME280;10749;46.296;7.524;2022-11-23T10:45:24;93831.28;;;8.66;51.18
21182;BME280;10749;46.296;7.524;2022-11-23T10:47:52;93820.94;;;8.64;51.01
21182;BME280;10749;46.296;7.524;2022-11-23T10:50:25;93810.72;;;8.55;51.07
21182;BME280;10749;46.296;7.524;2022-11-23T10:52:54;93806.22;;;8.49;51.01
21182;BME280;10749;46.296;7.524;2022-11-23T10:55:24;93804.16;;;8.44;50.94
21182;BME280;10749;46.296;7.524;2022-11-23T10:57:50;93801.19;;;8.32;50.90
21182;BME280;10749;46.296;7.524;2022-11-23T11:00:18;93806.72;;;8.38;50.71
21182;BME280;10749;46.296;7.524;2022-11-23T11:02:48;93795.78;;;8.41;50.55
21182;BME280;10749;46.296;7.524;2022-11-23T11:05:25;93800.31;;;8.47;50.39
21182;BME280;10749;46.296;7.524;2022-11-23T11:07:55;93792.78;;;8.44;50.37
21182;BME280;10749;46.296;7.524;2022-11-23T11:10:47;93795.66;;;8.49;50.17
21182;BME280;10749;46.296;7.524;2022-11-23T11:15:52;93792.75;;;8.65;50.25
21182;BME280;10749;46.296;7.524;2022-11-23T11:18:18;93785.66;;;8.72;50.25
21182;BME280;10749;46.296;7.524;2022-11-23T11:20:44;93783.28;;;8.77;50.16
21182;BME280;10749;46.296;7.524;2022-11-23T11:23:17;93771.94;;;8.83;49.98
21182;BME280;10749;46.296;7.524;2022-11-23T11:25:46;93773.53;;;8.77;49.75
21182;BME280;10749;46.296;7.524;2022-11-23T11:28:28;93769.91;;;8.85;49.77
21182;BME280;10749;46.296;7.524;2022-11-23T11:33:41;93765.13;;;9.02;49.92
21182;BME280;10749;46.296;7.524;2022-11-23T11:36:11;93773.63;;;8.97;49.71
21182;BME280;10749;46.296;7.524;2022-11-23T11:38:38;93764.66;;;8.85;49.45
21182;BME280;10749;46.296;7.524;2022-11-23T11:41:09;93765.81;;;8.76;49.38
21182;BME280;10749;46.296;7.524;2022-11-23T11:43:40;93764.34;;;8.67;49.15
21182;BME280;10749;46.296;7.524;2022-11-23T11:46:21;93766.53;;;8.63;49.22
21182;BME280;10749;46.296;7.524;2022-11-23T11:48:50;93763.47;;;8.60;48.69
21182;BME280;10749;46.296;7.524;2022-11-23T11:51:25;93755.09;;;8.50;48.84
21182;BME280;10749;46.296;7.524;2022-11-23T11:54:20;93753.84;;;8.46;48.83
21182;BME280;10749;46.296;7.524;2022-11-23T11:56:51;93755.09;;;8.50;48.82
21182;BME280;10749;46.296;7.524;2022-11-23T11:59:28;93742.78;;;8.57;48.84
21182;BME280;10749;46.296;7.524;2022-11-23T12:02:26;93752.53;;;8.63;48.73
21182;BME280;10749;46.296;7.524;2022-11-23T12:05:13;93741.81;;;8.71;48.84
21182;BME280;10749;46.296;7.524;2022-11-23T12:08:05;93742.31;;;8.81;48.65
21182;BME280;10749;46.296;7.524;2022-11-23T12:10:35;93735.16;;;8.75;48.69
21182;BME280;10749;46.296;7.524;2022-11-23T12:13:03;93739.44;;;8.76;48.79
21182;BME280;10749;46.296;7.524;2022-11-23T12:15:36;93737.44;;;8.85;48.72
21182;BME280;10749;46.296;7.524;2022-11-23T12:20:50;93732.66;;;9.01;48.61
21182;BME280;10749;46.296;7.524;2022-11-23T12:24:11;93723.75;;;9.15;48.72
21182;BME280;10749;46.296;7.524;2022-11-23T12:26:23;93724.63;;;9.22;48.57
21182;BME280;10749;46.296;7.524;2022-11-23T12:31:50;93727.91;;;9.38;48.62
21182;BME280;10749;46.296;7.524;2022-11-23T12:37:02;93722.66;;;9.51;48.35
21182;BME280;10749;46.296;7.524;2022-11-23T12:42:50;93722.91;;;9.76;48.28
21182;BME280;10749;46.296;7.524;2022-11-23T12:48:21;93719.84;;;9.98;48.16
21182;BME280;10749;46.296;7.524;2022-11-23T12:50:59;93708.28;;;9.99;48.18
21182;BME280;10749;46.296;7.524;2022-11-23T12:53:43;93706.84;;;10.03;48.32
21182;BME280;10749;46.296;7.524;2022-11-23T12:59:23;93698.72;;;9.98;48.06
21182;BME280;10749;46.296;7.524;2022-11-23T13:01:56;93693.25;;;9.93;47.84
21182;BME280;10749;46.296;7.524;2022-11-23T13:10:41;93688.13;;;10.11;47.49
21182;BME280;10749;46.296;7.524;2022-11-23T13:13:33;93693.03;;;10.28;47.62
21182;BME280;10749;46.296;7.524;2022-11-23T13:16:16;93696.28;;;10.36;47.30
21182;BME280;10749;46.296;7.524;2022-11-23T13:23:59;93684.88;;;10.36;46.81
21182;BME280;10749;46.296;7.524;2022-11-23T13:26:26;93686.53;;;10.30;47.00
21182;BME280;10749;46.296;7.524;2022-11-23T13:28:58;93684.09;;;10.22;46.93
21182;BME280;10749;46.296;7.524;2022-11-23T13:31:28;93691.00;;;10.16;46.53
21182;BME280;10749;46.296;7.524;2022-11-23T13:33:57;93686.72;;;10.09;46.75
21182;BME280;10749;46.296;7.524;2022-11-23T13:38:55;93686.31;;;9.92;46.64
21182;BME280;10749;46.296;7.524;2022-11-23T13:44:11;93669.22;;;9.62;46.34
21182;BME280;10749;46.296;7.524;2022-11-23T13:46:44;93672.06;;;9.54;46.12
21182;BME280;10749;46.296;7.524;2022-11-23T13:49:42;93669.84;;;9.51;46.13
21182;BME280;10749;46.296;7.524;2022-11-23T13:55:18;93672.88;;;9.48;46.15
21182;BME280;10749;46.296;7.524;2022-11-23T13:58:29;93668.19;;;9.50;46.11
21182;BME280;10749;46.296;7.524;2022-11-23T14:00:55;93665.78;;;9.55;46.13
21182;BME280;10749;46.296;7.524;2022-11-23T14:03:49;93666.78;;;9.54;46.06
21182;BME280;10749;46.296;7.524;2022-11-23T14:26:12;93707.97;;;9.22;45.98
21182;BME280;10749;46.296;7.524;2022-11-23T14:29:06;93715.84;;;9.15;45.99
21182;BME280;10749;46.296;7.524;2022-11-23T14:32:13;93723.56;;;9.10;46.03
21182;BME280;10749;46.296;7.524;2022-11-23T14:40:30;93714.75;;;8.97;45.43
21182;BME280;10749;46.296;7.524;2022-11-23T14:43:01;93713.53;;;8.99;45.61
21182;BME280;10749;46.296;7.524;2022-11-23T14:45:28;93720.66;;;8.99;45.76